createdAt,value
2023-04-16T00:13:38.975Z,15.70
2023-04-16T00:28:56.098Z,16.90
2023-04-16T00:43:58.964Z,14.30
2023-04-16T00:59:01.748Z,14.30
2023-04-16T01:14:04.265Z,12.30
2023-04-16T01:29:06.786Z,11.20
2023-04-16T01:44:09.644Z,14.50
2023-04-16T01:59:12.373Z,11.10
2023-04-16T02:14:14.734Z,8.80
2023-04-16T02:29:17.195Z,11.30
2023-04-16T02:44:19.908Z,10.20
2023-04-16T02:59:22.275Z,11.60
2023-04-16T03:26:59.058Z,12.40
2023-04-16T03:42:03.742Z,14.00
2023-04-16T04:12:26.624Z,13.90
2023-04-16T04:27:30.833Z,13.40
2023-04-16T04:42:34.594Z,13.20
2023-04-16T04:57:38.484Z,12.70
2023-04-16T05:12:42.269Z,10.80
2023-04-16T05:27:46.366Z,10.70
2023-04-16T05:42:50.404Z,12.70
2023-04-16T05:58:08.790Z,11.80
2023-04-16T06:13:12.982Z,12.40
2023-04-16T06:28:17.261Z,11.50
2023-04-16T06:43:21.898Z,12.90
2023-04-16T06:58:26.858Z,11.70
2023-04-16T07:13:31.100Z,13.00
2023-04-16T07:28:38.250Z,12.70
2023-04-16T07:43:42.986Z,13.10
2023-04-16T07:58:47.713Z,12.60
2023-04-16T08:13:51.819Z,9.30
2023-04-16T08:28:56.250Z,10.40
2023-04-16T08:44:08.188Z,8.50
2023-04-16T08:59:13.258Z,8.60
2023-04-16T09:14:18.811Z,8.10
2023-04-16T09:29:42.573Z,6.40
2023-04-16T09:44:50.951Z,6.80
2023-04-16T10:00:05.594Z,6.60
2023-04-16T10:15:11.597Z,7.50
2023-04-16T10:30:19.760Z,7.10
2023-04-16T10:45:37.933Z,7.30
2023-04-16T11:00:54.742Z,6.50
2023-04-16T11:16:00.288Z,7.20
2023-04-16T11:31:18.360Z,6.20
2023-04-16T11:46:27.870Z,5.70
2023-04-16T12:01:36.267Z,5.90
2023-04-16T12:16:40.277Z,5.80
2023-04-16T12:31:58.390Z,3.70
2023-04-16T12:47:02.584Z,3.30
2023-04-16T13:02:08.043Z,2.90
2023-04-16T13:17:13.029Z,2.00
2023-04-16T13:32:30.942Z,2.20
2023-04-16T13:47:36.736Z,3.50
2023-04-16T14:02:43.927Z,4.30
2023-04-16T14:17:48.715Z,3.70
2023-04-16T14:32:54.667Z,3.90
2023-04-16T14:47:58.824Z,3.30
2023-04-16T15:03:17.586Z,5.20
2023-04-16T15:18:22.649Z,5.60
2023-04-16T15:33:27.442Z,6.10
2023-04-16T15:48:32.190Z,8.60
2023-04-16T16:03:40.086Z,10.40
2023-04-16T16:18:46.203Z,12.10
2023-04-16T16:34:07.012Z,11.50
2023-04-16T16:49:12.305Z,13.90
2023-04-16T17:04:20.324Z,13.70
2023-04-16T17:19:39.407Z,13.80
2023-04-16T17:34:46.438Z,14.50
2023-04-16T17:49:55.314Z,16.90
2023-04-16T18:05:14.191Z,16.50
2023-04-16T18:20:19.937Z,16.30
2023-04-16T18:35:25.425Z,15.80
2023-04-16T18:50:30.421Z,15.70
2023-04-16T19:05:35.463Z,14.90
2023-04-16T19:21:01.438Z,13.50
2023-04-16T19:36:06.832Z,15.40
2023-04-16T19:51:13.374Z,14.50
2023-04-16T20:06:22.119Z,13.50
2023-04-16T20:21:28.191Z,14.10
2023-04-16T20:36:32.956Z,15.10
2023-04-16T20:51:38.542Z,18.60
2023-04-16T21:06:43.944Z,16.40
2023-04-16T21:21:48.626Z,15.70
2023-04-16T21:36:52.806Z,17.80
2023-04-16T21:51:59.322Z,18.20
2023-04-16T22:07:05.196Z,17.70
2023-04-16T22:22:09.472Z,15.90
2023-04-16T22:37:13.830Z,16.30
2023-04-16T22:52:18.105Z,15.10
2023-04-16T23:07:23.095Z,10.90
2023-04-16T23:22:27.272Z,10.20
2023-04-16T23:37:31.396Z,8.90
2023-04-16T23:52:35.577Z,10.50
